Time;durP1;ratioP1;P1;durP2;ratioP2;P2;SDS_P1;SDS_P2;PMS_P1;PMS_P2;Temp;Humidity;BMP_temperature;BMP_pressure;BME280_temperature;BME280_humidity;BME280_pressure;Samples;Min_cycle;Max_cycle;Signal;HPM_P1;HPM_P2
2022/04/10 00:00:28;;;;;;;;;;;3.10;99.90;;;;;;5094697;28;19909;-76
2022/04/10 00:02:53;;;;;;;;;;;3.10;99.90;;;;;;5094915;28;19908;-76
2022/04/10 00:05:19;;;;;;;;;;;3.20;99.90;;;;;;5094202;28;20277;-76
2022/04/10 00:07:45;;;;;;;;;;;3.20;99.90;;;;;;5095204;28;19962;-76
2022/04/10 00:10:10;;;;;;;;;;;3.20;99.90;;;;;;5094807;28;20433;-76
2022/04/10 00:12:36;;;;;;;;;;;3.20;99.90;;;;;;5094632;28;19908;-76
2022/04/10 00:15:04;;;;;;;;;;;3.20;99.90;;;;;;5094571;28;20302;-77
2022/04/10 00:17:31;;;;;;;;;;;3.20;99.90;;;;;;5094131;28;19955;-76
2022/04/10 00:19:56;;;;;;;;;;;3.10;99.90;;;;;;5094774;28;19961;-76
2022/04/10 00:22:22;;;;;;;;;;;3.10;99.90;;;;;;5094254;28;19908;-76
2022/04/10 00:24:47;;;;;;;;;;;3.10;99.90;;;;;;5094609;28;20392;-77
2022/04/10 00:27:14;;;;;;;;;;;3.10;99.90;;;;;;5094269;28;19908;-75
2022/04/10 00:29:40;;;;;;;;;;;3.10;99.90;;;;;;5094508;28;20062;-76
2022/04/10 00:32:06;;;;;;;;;;;3.00;99.90;;;;;;5094385;28;19987;-77
2022/04/10 00:34:32;;;;;;;;;;;3.00;99.90;;;;;;5093757;28;19920;-77
2022/04/10 00:36:57;;;;;;;;;;;3.10;99.90;;;;;;5094674;28;19945;-77
2022/04/10 00:39:24;;;;;;;;;;;3.00;99.90;;;;;;5094168;28;19908;-77
2022/04/10 00:41:50;;;;;;;;;;;2.90;99.90;;;;;;5094442;28;19908;-77
2022/04/10 00:44:16;;;;;;;;;;;2.80;99.90;;;;;;5093757;28;19931;-76
2022/04/10 00:46:41;;;;;;;;;;;2.80;99.90;;;;;;5094244;28;19915;-77
2022/04/10 00:49:07;;;;;;;;;;;2.70;99.90;;;;;;5094059;28;20361;-76
2022/04/10 00:51:46;;;;;;;;;;;2.70;99.90;;;;;;5093501;28;19908;-76
2022/04/10 00:54:12;;;;;;;;;;;2.70;99.90;;;;;;5093892;28;20038;-76
2022/04/10 00:56:38;;;;;;;;;;;2.60;99.90;;;;;;5093206;28;19951;-76
2022/04/10 00:59:04;;;;;;;;;;;2.60;99.90;;;;;;5093871;28;19998;-77
2022/04/10 01:01:30;;;;;;;;;;;2.50;99.90;;;;;;5093202;28;19977;-77
2022/04/10 01:03:55;;;;;;;;;;;2.50;99.90;;;;;;5095433;28;20357;-77
2022/04/10 01:06:22;;;;;;;;;;;2.50;99.90;;;;;;5093130;28;19912;-76
2022/04/10 01:08:48;;;;;;;;;;;2.40;99.90;;;;;;5093721;28;19908;-77
2022/04/10 01:11:14;;;;;;;;;;;2.40;99.90;;;;;;5093947;28;19916;-77
2022/04/10 01:13:40;;;;;;;;;;;2.40;99.90;;;;;;5093683;28;19912;-76
2022/04/10 01:16:06;;;;;;;;;;;2.40;99.90;;;;;;5093842;28;19995;-76
2022/04/10 01:18:31;;;;;;;;;;;2.50;99.90;;;;;;5092319;28;19908;-76
2022/04/10 01:21:01;;;;;;;;;;;2.50;99.90;;;;;;5093642;28;19908;-76
2022/04/10 01:23:26;;;;;;;;;;;2.60;99.90;;;;;;5092751;28;19915;-76
2022/04/10 01:25:52;;;;;;;;;;;2.70;99.90;;;;;;5093344;28;20277;-77
2022/04/10 01:28:18;;;;;;;;;;;2.60;99.90;;;;;;5093089;28;19908;-76
2022/04/10 01:30:43;;;;;;;;;;;2.60;99.90;;;;;;5093458;28;20405;-77
2022/04/10 01:33:09;;;;;;;;;;;2.60;99.90;;;;;;5093423;28;19915;-77
2022/04/10 01:35:36;;;;;;;;;;;2.50;99.90;;;;;;5092372;28;20280;-76
2022/04/10 01:38:02;;;;;;;;;;;2.50;99.90;;;;;;5093337;28;19974;-77
2022/04/10 01:40:27;;;;;;;;;;;2.50;99.90;;;;;;5092754;28;19908;-76
2022/04/10 01:42:53;;;;;;;;;;;2.50;99.90;;;;;;5093465;28;19908;-77
2022/04/10 01:45:18;;;;;;;;;;;2.40;99.90;;;;;;5092342;28;20407;-76
2022/04/10 01:47:44;;;;;;;;;;;2.50;99.90;;;;;;5093077;28;19908;-77
2022/04/10 01:50:10;;;;;;;;;;;2.50;99.90;;;;;;5092986;28;19908;-77
2022/04/10 01:52:36;;;;;;;;;;;2.30;99.90;;;;;;5092340;28;20396;-76
2022/04/10 01:55:02;;;;;;;;;;;2.40;99.90;;;;;;5093216;28;19951;-77
2022/04/10 01:57:27;;;;;;;;;;;2.30;99.90;;;;;;5092395;28;19913;-76
2022/04/10 01:59:53;;;;;;;;;;;2.20;99.90;;;;;;5093293;28;19908;-76
2022/04/10 02:02:18;;;;;;;;;;;2.10;99.90;;;;;;5093001;28;20347;-75
2022/04/10 02:04:44;;;;;;;;;;;2.10;99.90;;;;;;5090953;28;19920;-76
2022/04/10 02:07:09;;;;;;;;;;;2.10;99.90;;;;;;5093038;28;20003;-77
2022/04/10 02:09:35;;;;;;;;;;;2.00;99.90;;;;;;5092783;28;20357;-76
2022/04/10 02:12:00;;;;;;;;;;;2.10;99.90;;;;;;5093053;28;19912;-77
2022/04/10 02:14:26;;;;;;;;;;;2.20;99.90;;;;;;5092431;28;19982;-76
2022/04/10 02:16:52;;;;;;;;;;;2.30;99.90;;;;;;5093240;28;19947;-76
2022/04/10 02:19:17;;;;;;;;;;;2.30;99.90;;;;;;5092659;28;20333;-76
2022/04/10 02:21:43;;;;;;;;;;;2.30;99.90;;;;;;5092070;28;19919;-76
2022/04/10 02:24:08;;;;;;;;;;;2.20;99.90;;;;;;5091707;28;19944;-76
2022/04/10 02:26:34;;;;;;;;;;;2.20;99.90;;;;;;5091999;28;20353;-76
2022/04/10 02:29:00;;;;;;;;;;;2.20;99.90;;;;;;5092485;28;19915;-76
2022/04/10 02:31:26;;;;;;;;;;;2.20;99.90;;;;;;5092176;28;20011;-76
2022/04/10 02:33:51;;;;;;;;;;;2.30;99.90;;;;;;5092667;28;19981;-75
2022/04/10 02:36:19;;;;;;;;;;;2.40;99.90;;;;;;5092526;28;20261;-76
2022/04/10 02:38:44;;;;;;;;;;;2.50;99.90;;;;;;5092200;28;20358;-76
2022/04/10 02:41:10;;;;;;;;;;;2.50;99.90;;;;;;5092729;28;19908;-76
2022/04/10 02:43:37;;;;;;;;;;;2.60;99.90;;;;;;5092134;28;19923;-75
2022/04/10 02:46:03;;;;;;;;;;;2.50;99.90;;;;;;5091176;28;19998;-76
2022/04/10 02:48:28;;;;;;;;;;;2.60;99.90;;;;;;5092073;28;19943;-75
2022/04/10 02:50:54;;;;;;;;;;;2.50;99.90;;;;;;5092593;28;19908;-76
2022/04/10 02:53:19;;;;;;;;;;;2.50;99.90;;;;;;5092531;28;19908;-76
2022/04/10 02:55:45;;;;;;;;;;;2.60;99.90;;;;;;5092049;28;19913;-75
2022/04/10 02:58:11;;;;;;;;;;;2.50;99.90;;;;;;5095507;28;19912;-76
2022/04/10 03:00:36;;;;;;;;;;;2.40;99.90;;;;;;5094624;28;19908;-75
2022/04/10 03:03:02;;;;;;;;;;;2.40;99.90;;;;;;5096173;28;19912;-75
2022/04/10 03:05:27;;;;;;;;;;;2.30;99.90;;;;;;5095309;28;20435;-75
2022/04/10 03:07:53;;;;;;;;;;;2.20;99.90;;;;;;5096109;28;19915;-76
2022/04/10 03:10:18;;;;;;;;;;;2.20;99.90;;;;;;5096299;28;19991;-76
2022/04/10 03:12:44;;;;;;;;;;;2.20;99.90;;;;;;5095234;28;19912;-76
2022/04/10 03:15:10;;;;;;;;;;;2.20;99.90;;;;;;5095539;28;19912;-76
2022/04/10 03:17:38;;;;;;;;;;;2.30;99.90;;;;;;5094842;28;19938;-75
2022/04/10 03:20:04;;;;;;;;;;;2.40;99.90;;;;;;5095702;28;19959;-76
2022/04/10 03:22:30;;;;;;;;;;;2.40;99.90;;;;;;5094948;28;19908;-75
2022/04/10 03:24:55;;;;;;;;;;;2.40;99.90;;;;;;5095282;28;20273;-75
2022/04/10 03:27:21;;;;;;;;;;;2.50;99.90;;;;;;5095426;28;19912;-76
2022/04/10 03:29:46;;;;;;;;;;;2.40;99.90;;;;;;5094944;28;19912;-75
2022/04/10 03:32:12;;;;;;;;;;;2.50;99.90;;;;;;5094425;28;20371;-76
2022/04/10 03:34:38;;;;;;;;;;;2.50;99.90;;;;;;5095111;28;20364;-76
2022/04/10 03:37:03;;;;;;;;;;;2.50;99.90;;;;;;5095465;28;20014;-76
2022/04/10 03:39:29;;;;;;;;;;;2.50;99.90;;;;;;5095118;28;20380;-75
2022/04/10 03:41:55;;;;;;;;;;;2.60;99.90;;;;;;5095416;28;19908;-76
2022/04/10 03:44:20;;;;;;;;;;;2.60;99.90;;;;;;5095090;28;20344;-76
2022/04/10 03:46:46;;;;;;;;;;;2.70;99.90;;;;;;5094572;28;19918;-76
2022/04/10 03:49:11;;;;;;;;;;;2.80;99.90;;;;;;5095787;28;20345;-76
2022/04/10 03:51:37;;;;;;;;;;;2.80;99.90;;;;;;5093535;28;19908;-75
2022/04/10 03:54:02;;;;;;;;;;;3.00;99.90;;;;;;5095265;28;19962;-76
2022/04/10 03:56:28;;;;;;;;;;;3.00;99.90;;;;;;5094670;28;19912;-75
2022/04/10 03:58:53;;;;;;;;;;;3.10;99.90;;;;;;5094765;28;20274;-75
2022/04/10 04:01:19;;;;;;;;;;;3.10;99.90;;;;;;5095248;28;19908;-76
2022/04/10 04:03:44;;;;;;;;;;;3.20;99.90;;;;;;5093105;28;20006;-76
2022/04/10 04:06:10;;;;;;;;;;;3.20;99.90;;;;;;5095494;28;19915;-75
2022/04/10 04:08:36;;;;;;;;;;;3.30;99.90;;;;;;5096695;28;19908;-75
2022/04/10 04:11:01;;;;;;;;;;;3.30;99.90;;;;;;5095030;28;20390;-76
2022/04/10 04:13:27;;;;;;;;;;;3.30;99.90;;;;;;5094879;28;19908;-76
2022/04/10 04:15:52;;;;;;;;;;;3.30;99.90;;;;;;5094597;28;20353;-75
2022/04/10 04:18:18;;;;;;;;;;;3.40;99.90;;;;;;5094857;28;19951;-75
2022/04/10 04:20:43;;;;;;;;;;;3.40;99.90;;;;;;5094341;28;19908;-76
2022/04/10 04:23:09;;;;;;;;;;;3.50;99.90;;;;;;5094620;28;19934;-76
2022/04/10 04:25:35;;;;;;;;;;;3.60;99.90;;;;;;5094177;28;19908;-76
2022/04/10 04:28:00;;;;;;;;;;;3.70;99.90;;;;;;5094552;28;19912;-76
2022/04/10 04:30:26;;;;;;;;;;;3.70;99.90;;;;;;5094878;28;19915;-76
2022/04/10 04:32:51;;;;;;;;;;;3.70;99.90;;;;;;5094007;28;19912;-76
2022/04/10 04:35:17;;;;;;;;;;;3.70;99.90;;;;;;5094544;28;19957;-76
2022/04/10 04:37:42;;;;;;;;;;;3.70;99.90;;;;;;5093781;28;19916;-76
2022/04/10 04:40:09;;;;;;;;;;;3.80;99.90;;;;;;5094571;28;19908;-76
2022/04/10 04:42:34;;;;;;;;;;;3.80;99.90;;;;;;5093577;28;19915;-76
2022/04/10 04:45:00;;;;;;;;;;;3.70;99.90;;;;;;5094256;28;19908;-76
2022/04/10 04:47:25;;;;;;;;;;;3.80;99.90;;;;;;5092544;28;19908;-76
2022/04/10 04:49:51;;;;;;;;;;;3.70;99.90;;;;;;5092972;28;20486;-76
2022/04/10 04:52:17;;;;;;;;;;;3.80;99.90;;;;;;5094420;28;19954;-76
2022/04/10 04:54:42;;;;;;;;;;;3.80;99.90;;;;;;5093322;28;19919;-76
2022/04/10 04:57:08;;;;;;;;;;;3.80;99.90;;;;;;5093889;28;19951;-76
2022/04/10 04:59:34;;;;;;;;;;;3.90;99.90;;;;;;5092073;28;19908;-76
2022/04/10 05:01:59;;;;;;;;;;;4.00;99.90;;;;;;5093726;28;19912;-76
2022/04/10 05:04:25;;;;;;;;;;;4.00;99.90;;;;;;5093791;28;19956;-76
2022/04/10 05:06:50;;;;;;;;;;;4.00;99.90;;;;;;5093117;28;19912;-76
2022/04/10 05:09:16;;;;;;;;;;;4.20;99.90;;;;;;5093817;28;19915;-76
2022/04/10 05:11:41;;;;;;;;;;;4.20;99.90;;;;;;5092916;28;19910;-76
2022/04/10 05:14:07;;;;;;;;;;;4.30;99.90;;;;;;5093555;28;19947;-76
2022/04/10 05:16:32;;;;;;;;;;;4.40;99.90;;;;;;5093485;28;20293;-75
2022/04/10 05:18:58;;;;;;;;;;;4.50;99.90;;;;;;5093396;28;19908;-76
2022/04/10 05:21:24;;;;;;;;;;;4.60;99.90;;;;;;5092415;28;19908;-76
2022/04/10 05:23:49;;;;;;;;;;;4.60;99.90;;;;;;5095750;28;19908;-76
2022/04/10 05:26:15;;;;;;;;;;;4.60;99.90;;;;;;5097748;28;20299;-76
2022/04/10 05:28:41;;;;;;;;;;;4.60;99.90;;;;;;5092349;28;20007;-75
2022/04/10 05:31:06;;;;;;;;;;;4.60;99.90;;;;;;5093089;28;20376;-75
2022/04/10 05:33:32;;;;;;;;;;;4.70;99.90;;;;;;5093159;28;19912;-76
2022/04/10 05:35:58;;;;;;;;;;;4.70;99.90;;;;;;5092923;28;19981;-76
2022/04/10 05:38:24;;;;;;;;;;;4.80;99.90;;;;;;5093202;28;20360;-76
2022/04/10 05:40:52;;;;;;;;;;;4.80;99.90;;;;;;5092780;28;19908;-76
2022/04/10 05:43:22;;;;;;;;;;;4.90;99.90;;;;;;5092987;28;19996;-76
2022/04/10 05:45:48;;;;;;;;;;;4.90;99.90;;;;;;5092637;28;20029;-76
2022/04/10 05:48:14;;;;;;;;;;;4.90;99.90;;;;;;5092878;28;19908;-76
2022/04/10 05:50:39;;;;;;;;;;;5.00;99.90;;;;;;5092493;28;19908;-76
2022/04/10 05:53:05;;;;;;;;;;;5.20;99.90;;;;;;5093499;28;19908;-76
2022/04/10 05:55:30;;;;;;;;;;;5.30;99.90;;;;;;5093049;28;19965;-76
2022/04/10 05:57:56;;;;;;;;;;;5.40;99.90;;;;;;5092409;28;20536;-75
2022/04/10 06:00:23;;;;;;;;;;;5.40;99.90;;;;;;5092638;28;20360;-76
2022/04/10 06:02:49;;;;;;;;;;;5.60;99.90;;;;;;5092374;28;19908;-76
2022/04/10 06:05:15;;;;;;;;;;;5.70;99.90;;;;;;5093163;28;20254;-76
2022/04/10 06:07:41;;;;;;;;;;;5.80;99.90;;;;;;5092492;28;19918;-76
2022/04/10 06:10:07;;;;;;;;;;;5.80;99.90;;;;;;5092835;28;20088;-76
2022/04/10 06:12:32;;;;;;;;;;;5.90;99.90;;;;;;5092715;28;20018;-76
2022/04/10 06:14:58;;;;;;;;;;;6.00;99.90;;;;;;5091855;28;20711;-76
2022/04/10 06:17:23;;;;;;;;;;;6.00;99.90;;;;;;5092891;28;19918;-76
2022/04/10 06:19:49;;;;;;;;;;;6.00;99.90;;;;;;5092090;28;20353;-76
2022/04/10 06:22:15;;;;;;;;;;;6.10;99.90;;;;;;5092768;28;19912;-77
2022/04/10 06:24:41;;;;;;;;;;;6.10;99.90;;;;;;5092102;28;19916;-78
2022/04/10 06:27:07;;;;;;;;;;;6.20;99.90;;;;;;5092695;28;19908;-76
2022/04/10 06:29:32;;;;;;;;;;;6.20;99.90;;;;;;5092533;28;20268;-76
2022/04/10 06:31:58;;;;;;;;;;;6.30;99.90;;;;;;5093762;28;19912;-76
2022/04/10 06:34:23;;;;;;;;;;;6.30;99.90;;;;;;5096601;28;19919;-76
2022/04/10 06:36:49;;;;;;;;;;;6.40;99.90;;;;;;5096200;28;19919;-76
2022/04/10 06:39:18;;;;;;;;;;;6.40;99.90;;;;;;5096369;28;19912;-76
2022/04/10 06:41:44;;;;;;;;;;;6.50;99.90;;;;;;5099826;28;19912;-76
2022/04/10 06:44:09;;;;;;;;;;;6.60;99.90;;;;;;5100413;28;19913;-76
2022/04/10 06:46:35;;;;;;;;;;;6.60;99.90;;;;;;5096471;28;19908;-77
2022/04/10 06:49:01;;;;;;;;;;;6.70;99.90;;;;;;5095606;28;20246;-76
2022/04/10 06:51:26;;;;;;;;;;;6.70;99.90;;;;;;5096115;28;19908;-76
2022/04/10 06:53:52;;;;;;;;;;;6.70;99.90;;;;;;5095686;28;20283;-76
2022/04/10 06:56:17;;;;;;;;;;;6.80;99.90;;;;;;5097139;28;19916;-76
2022/04/10 06:58:43;;;;;;;;;;;6.80;99.90;;;;;;5095574;28;20380;-75
2022/04/10 07:01:09;;;;;;;;;;;6.80;99.90;;;;;;5096194;28;19955;-76
2022/04/10 07:03:34;;;;;;;;;;;6.90;99.90;;;;;;5096076;28;19927;-76
2022/04/10 07:06:00;;;;;;;;;;;7.00;99.90;;;;;;5095668;28;20542;-76
2022/04/10 07:08:26;;;;;;;;;;;7.00;99.90;;;;;;5096236;28;19991;-76
2022/04/10 07:10:52;;;;;;;;;;;7.00;99.90;;;;;;5095430;28;19908;-76
2022/04/10 07:13:18;;;;;;;;;;;7.10;99.90;;;;;;5094535;28;19916;-76
2022/04/10 07:15:48;;;;;;;;;;;7.10;99.90;;;;;;5095364;28;19912;-76
2022/04/10 07:18:13;;;;;;;;;;;7.20;99.90;;;;;;5095706;28;19919;-76
2022/04/10 07:20:39;;;;;;;;;;;7.20;99.90;;;;;;5095937;28;19908;-76
2022/04/10 07:25:49;;;;;;;;;;;7.30;99.90;;;;;;5094847;28;19930;-76
2022/04/10 07:28:15;;;;;;;;;;;7.40;99.90;;;;;;5095372;28;20345;-76
2022/04/10 07:30:40;;;;;;;;;;;7.40;99.90;;;;;;5095463;28;19965;-76
2022/04/10 07:33:07;;;;;;;;;;;7.40;99.90;;;;;;5094431;28;20361;-75
2022/04/10 07:35:34;;;;;;;;;;;7.40;99.90;;;;;;5095313;28;20338;-75
2022/04/10 07:38:00;;;;;;;;;;;7.40;99.90;;;;;;5094731;28;19912;-75
2022/04/10 07:40:26;;;;;;;;;;;7.50;99.90;;;;;;5093805;28;19934;-75
2022/04/10 07:42:52;;;;;;;;;;;7.50;99.90;;;;;;5094172;28;20315;-74
2022/04/10 07:48:02;;;;;;;;;;;7.50;99.90;;;;;;5094647;28;19961;-76
2022/04/10 07:50:28;;;;;;;;;;;7.50;99.90;;;;;;5095320;28;19909;-75
2022/04/10 07:52:54;;;;;;;;;;;7.50;99.90;;;;;;5094513;28;19908;-77
2022/04/10 07:55:21;;;;;;;;;;;7.50;99.90;;;;;;5095381;28;19919;-77
2022/04/10 07:57:50;;;;;;;;;;;7.50;99.90;;;;;;5094558;28;20353;-76
2022/04/10 08:00:17;;;;;;;;;;;7.50;99.90;;;;;;5103739;28;19915;-79
2022/04/10 08:02:48;;;;;;;;;;;7.60;99.90;;;;;;5094900;28;19908;-77
2022/04/10 08:05:14;;;;;;;;;;;7.60;99.90;;;;;;5095116;28;19927;-78
2022/04/10 08:07:46;;;;;;;;;;;7.60;99.90;;;;;;5095228;28;19908;-77
2022/04/10 08:10:13;;;;;;;;;;;7.60;99.90;;;;;;5094829;28;20002;-77
2022/04/10 08:12:39;;;;;;;;;;;7.70;99.90;;;;;;5094852;28;20280;-78
2022/04/10 08:15:05;;;;;;;;;;;7.70;99.90;;;;;;5094742;28;19912;-77
2022/04/10 08:17:30;;;;;;;;;;;7.70;99.90;;;;;;5095212;28;20006;-77
2022/04/10 08:19:56;;;;;;;;;;;7.80;99.90;;;;;;5094524;28;19908;-78
2022/04/10 08:22:26;;;;;;;;;;;7.80;99.90;;;;;;5094625;28;19961;-78
2022/04/10 08:24:52;;;;;;;;;;;7.90;99.90;;;;;;5093888;28;19916;-77
2022/04/10 08:27:17;;;;;;;;;;;8.00;99.90;;;;;;5093251;28;19908;-78
2022/04/10 08:29:43;;;;;;;;;;;8.00;99.90;;;;;;5094271;28;19912;-77
2022/04/10 08:32:09;;;;;;;;;;;8.10;99.90;;;;;;5092355;28;19908;-75
2022/04/10 08:34:34;;;;;;;;;;;8.10;99.90;;;;;;5094114;28;20389;-76
2022/04/10 08:37:05;;;;;;;;;;;8.20;99.90;;;;;;5093766;28;19912;-76
2022/04/10 08:39:34;;;;;;;;;;;8.20;99.90;;;;;;5094293;28;19959;-76
2022/04/10 08:42:04;;;;;;;;;;;8.30;99.90;;;;;;5093610;28;20281;-76
2022/04/10 08:44:30;;;;;;;;;;;8.30;99.90;;;;;;5092927;28;20368;-75
2022/04/10 08:46:57;;;;;;;;;;;8.30;99.90;;;;;;5093254;28;19915;-75
2022/04/10 08:49:26;;;;;;;;;;;8.30;99.90;;;;;;5094210;28;20240;-76
2022/04/10 08:51:52;;;;;;;;;;;8.30;99.90;;;;;;5093454;28;19977;-75
2022/04/10 08:54:21;;;;;;;;;;;8.30;99.90;;;;;;5093638;28;19919;-76
2022/04/10 08:56:46;;;;;;;;;;;8.30;99.90;;;;;;5092338;28;20005;-76
2022/04/10 08:59:12;;;;;;;;;;;8.40;99.90;;;;;;5093562;28;20384;-76
2022/04/10 09:01:38;;;;;;;;;;;8.40;99.90;;;;;;5093628;28;19912;-76
2022/04/10 09:04:04;;;;;;;;;;;8.40;99.90;;;;;;5092850;28;19972;-76
2022/04/10 09:06:29;;;;;;;;;;;8.30;99.90;;;;;;5093869;28;20278;-76
2022/04/10 09:09:16;;;;;;;;;;;8.40;99.90;;;;;;5093102;28;19908;-75
2022/04/10 09:11:42;;;;;;;;;;;8.30;99.90;;;;;;5094361;28;19912;-75
2022/04/10 09:14:08;;;;;;;;;;;8.40;99.90;;;;;;5092424;28;20007;-75
2022/04/10 09:16:33;;;;;;;;;;;8.40;99.90;;;;;;5102249;28;19946;-77
2022/04/10 09:19:01;;;;;;;;;;;8.50;99.90;;;;;;5099920;28;19908;-75
2022/04/10 09:21:32;;;;;;;;;;;8.50;99.90;;;;;;5093022;28;19908;-75
2022/04/10 09:24:01;;;;;;;;;;;8.50;99.90;;;;;;5093939;28;19908;-75
2022/04/10 09:26:42;;;;;;;;;;;8.60;99.90;;;;;;5093156;28;19915;-76
2022/04/10 09:29:07;;;;;;;;;;;8.70;99.90;;;;;;5092204;28;19998;-76
2022/04/10 09:31:34;;;;;;;;;;;8.70;99.90;;;;;;5092738;28;19959;-76
2022/04/10 09:34:01;;;;;;;;;;;8.80;99.90;;;;;;5091630;28;20369;-75
2022/04/10 09:36:30;;;;;;;;;;;8.80;99.90;;;;;;5093148;28;19923;-76
2022/04/10 09:38:55;;;;;;;;;;;8.90;99.90;;;;;;5092142;28;20388;-75
2022/04/10 09:41:21;;;;;;;;;;;8.90;99.90;;;;;;5092537;28;19912;-76
2022/04/10 09:43:46;;;;;;;;;;;9.00;99.90;;;;;;5091787;28;20361;-76
2022/04/10 09:46:13;;;;;;;;;;;9.00;99.90;;;;;;5092070;28;19919;-76
2022/04/10 09:48:38;;;;;;;;;;;9.10;99.90;;;;;;5092803;28;19908;-76
2022/04/10 09:51:05;;;;;;;;;;;9.20;99.90;;;;;;5091716;28;20257;-76
2022/04/10 09:53:32;;;;;;;;;;;9.20;99.90;;;;;;5092428;28;19908;-76
2022/04/10 09:56:02;;;;;;;;;;;9.20;99.90;;;;;;5091859;28;19923;-76
2022/04/10 09:58:28;;;;;;;;;;;9.30;99.90;;;;;;5092259;28;20011;-76
2022/04/10 10:00:54;;;;;;;;;;;9.30;99.90;;;;;;5091684;28;19943;-75
2022/04/10 10:03:24;;;;;;;;;;;9.30;99.90;;;;;;5090833;28;19920;-76
2022/04/10 10:05:50;;;;;;;;;;;9.40;99.90;;;;;;5091967;28;19915;-76
2022/04/10 10:08:16;;;;;;;;;;;9.40;99.90;;;;;;5091613;28;19930;-77
2022/04/10 10:10:42;;;;;;;;;;;9.50;99.90;;;;;;5092208;28;19915;-76
2022/04/10 10:13:08;;;;;;;;;;;9.60;99.90;;;;;;5091476;28;19987;-77
2022/04/10 10:15:34;;;;;;;;;;;9.60;99.90;;;;;;5091801;28;19912;-76
2022/04/10 10:18:04;;;;;;;;;;;9.70;99.90;;;;;;5091491;28;20452;-76
2022/04/10 10:20:30;;;;;;;;;;;9.60;99.90;;;;;;5092466;28;20467;-76
2022/04/10 10:22:56;;;;;;;;;;;9.60;99.90;;;;;;5091573;28;19961;-76
2022/04/10 10:25:27;;;;;;;;;;;9.70;99.90;;;;;;5092511;28;19957;-76
2022/04/10 10:28:11;;;;;;;;;;;9.80;99.90;;;;;;5091713;28;19994;-75
2022/04/10 10:30:43;;;;;;;;;;;9.80;99.90;;;;;;5092116;28;19914;-77
2022/04/10 10:33:17;;;;;;;;;;;9.80;99.90;;;;;;5092598;28;19908;-78
2022/04/10 10:35:44;;;;;;;;;;;9.90;99.90;;;;;;5093153;28;20317;-77
2022/04/10 10:38:21;;;;;;;;;;;10.00;99.90;;;;;;5091596;28;19916;-77
2022/04/10 10:40:47;;;;;;;;;;;10.00;99.90;;;;;;5092149;28;19931;-76
2022/04/10 10:43:17;;;;;;;;;;;10.00;99.90;;;;;;5091439;28;19947;-77
2022/04/10 10:45:43;;;;;;;;;;;10.00;99.90;;;;;;5091693;28;19915;-76
2022/04/10 10:48:24;;;;;;;;;;;10.00;99.90;;;;;;5091248;28;19908;-77
2022/04/10 10:50:50;;;;;;;;;;;10.10;99.90;;;;;;5091660;28;20425;-76
2022/04/10 10:53:20;;;;;;;;;;;10.20;99.90;;;;;;5090186;28;19931;-77
2022/04/10 10:55:49;;;;;;;;;;;10.20;99.90;;;;;;5091839;28;20294;-76
2022/04/10 10:58:16;;;;;;;;;;;10.30;99.90;;;;;;5090892;28;20396;-76
2022/04/10 11:00:44;;;;;;;;;;;10.30;99.90;;;;;;5091981;28;19913;-77
2022/04/10 11:03:09;;;;;;;;;;;10.40;99.90;;;;;;5090626;28;20404;-76
2022/04/10 11:05:39;;;;;;;;;;;10.40;99.90;;;;;;5091269;28;19971;-77
2022/04/10 11:08:05;;;;;;;;;;;10.30;99.90;;;;;;5091170;28;19999;-76
2022/04/10 11:10:31;;;;;;;;;;;10.40;99.90;;;;;;5091615;28;20337;-77
2022/04/10 11:13:07;;;;;;;;;;;10.40;99.90;;;;;;5090958;28;19930;-75
2022/04/10 11:15:34;;;;;;;;;;;10.30;99.90;;;;;;5091606;28;20270;-76
2022/04/10 11:18:18;;;;;;;;;;;10.40;99.90;;;;;;5091153;28;20346;-76
2022/04/10 11:20:53;;;;;;;;;;;10.40;99.90;;;;;;5095329;28;19954;-77
2022/04/10 11:23:19;;;;;;;;;;;10.40;99.90;;;;;;5095151;28;19908;-77
2022/04/10 11:25:51;;;;;;;;;;;10.40;99.90;;;;;;5095056;28;19940;-77
2022/04/10 11:28:17;;;;;;;;;;;10.40;99.90;;;;;;5094263;28;20475;-76
2022/04/10 11:30:45;;;;;;;;;;;10.40;99.90;;;;;;5095247;28;19943;-76
2022/04/10 11:33:11;;;;;;;;;;;10.50;99.90;;;;;;5094341;28;19908;-77
2022/04/10 11:35:38;;;;;;;;;;;10.60;99.90;;;;;;5094920;28;20374;-77
2022/04/10 11:38:12;;;;;;;;;;;10.60;99.90;;;;;;5094350;28;19912;-76
2022/04/10 11:40:38;;;;;;;;;;;10.70;99.90;;;;;;5094976;28;19954;-77
2022/04/10 11:43:07;;;;;;;;;;;10.80;99.90;;;;;;5094381;28;19908;-77
2022/04/10 11:45:33;;;;;;;;;;;10.90;99.90;;;;;;5094625;28;19912;-76
2022/04/10 11:47:59;;;;;;;;;;;11.10;99.90;;;;;;5094205;28;20422;-75
2022/04/10 11:50:25;;;;;;;;;;;11.20;99.90;;;;;;5094404;28;20262;-77
2022/04/10 11:53:14;;;;;;;;;;;11.30;99.90;;;;;;5093896;28;19912;-77
2022/04/10 11:55:41;;;;;;;;;;;11.50;99.90;;;;;;5091084;28;19912;-76
2022/04/10 11:58:20;;;;;;;;;;;11.50;99.90;;;;;;5093827;28;19912;-76
2022/04/10 12:00:47;;;;;;;;;;;11.60;99.90;;;;;;5094440;28;20365;-77
2022/04/10 12:03:13;;;;;;;;;;;11.70;99.90;;;;;;5095989;28;19974;-76
2022/04/10 12:05:39;;;;;;;;;;;11.80;99.90;;;;;;5093701;28;20373;-76
2022/04/10 12:08:05;;;;;;;;;;;11.70;99.90;;;;;;5093445;28;19909;-76
2022/04/10 12:10:31;;;;;;;;;;;11.80;99.90;;;;;;5093682;28;20473;-77
2022/04/10 12:12:57;;;;;;;;;;;11.70;99.90;;;;;;5093597;28;20003;-75
2022/04/10 12:15:23;;;;;;;;;;;11.70;99.90;;;;;;5093803;28;20053;-75
2022/04/10 12:17:50;;;;;;;;;;;11.70;99.90;;;;;;5093999;28;19913;-77
2022/04/10 12:20:15;;;;;;;;;;;11.60;99.90;;;;;;5093704;28;19910;-76
2022/04/10 12:22:41;;;;;;;;;;;11.60;99.90;;;;;;5093898;28;19991;-76
2022/04/10 12:25:08;;;;;;;;;;;11.50;99.90;;;;;;5092001;28;19999;-77
2022/04/10 12:27:34;;;;;;;;;;;11.50;99.90;;;;;;5093912;28;20322;-76
2022/04/10 12:30:05;;;;;;;;;;;11.40;99.90;;;;;;5093004;28;19951;-76
2022/04/10 12:32:31;;;;;;;;;;;11.30;99.90;;;;;;5094152;28;19908;-76
2022/04/10 12:35:05;;;;;;;;;;;11.30;99.90;;;;;;5093334;28;20371;-74
2022/04/10 12:37:31;;;;;;;;;;;11.20;99.90;;;;;;5093662;28;20361;-76
2022/04/10 12:39:58;;;;;;;;;;;11.30;99.90;;;;;;5093246;28;19939;-74
2022/04/10 12:42:24;;;;;;;;;;;11.30;99.90;;;;;;5093334;28;19935;-76
2022/04/10 12:44:56;;;;;;;;;;;11.20;99.90;;;;;;5093470;28;20331;-76
2022/04/10 12:47:38;;;;;;;;;;;11.30;99.90;;;;;;5093050;28;19912;-76
2022/04/10 12:50:05;;;;;;;;;;;11.30;99.90;;;;;;5092061;28;20458;-75
2022/04/10 12:52:30;;;;;;;;;;;11.30;99.90;;;;;;5093304;28;20356;-76
2022/04/10 12:54:56;;;;;;;;;;;11.20;99.90;;;;;;5093079;28;19951;-75
2022/04/10 12:57:26;;;;;;;;;;;11.20;99.90;;;;;;5093017;28;19915;-76
2022/04/10 12:59:52;;;;;;;;;;;11.30;99.90;;;;;;5093415;28;19918;-76
2022/04/10 13:02:21;;;;;;;;;;;11.40;99.90;;;;;;5090767;28;20320;-76
2022/04/10 13:04:52;;;;;;;;;;;11.30;99.90;;;;;;5093190;28;19943;-76
2022/04/10 13:07:18;;;;;;;;;;;11.40;99.90;;;;;;5092387;28;20004;-77
2022/04/10 13:09:48;;;;;;;;;;;11.40;99.90;;;;;;5092568;28;19995;-76
2022/04/10 13:12:21;;;;;;;;;;;11.50;99.90;;;;;;5092159;28;20319;-77
2022/04/10 13:14:50;;;;;;;;;;;11.50;99.90;;;;;;5092716;28;20226;-77
2022/04/10 13:17:16;;;;;;;;;;;11.50;99.90;;;;;;5092002;28;20560;-77
2022/04/10 13:19:42;;;;;;;;;;;11.50;99.90;;;;;;5092881;28;19908;-77
2022/04/10 13:22:07;;;;;;;;;;;11.50;99.90;;;;;;5092224;28;19908;-77
2022/04/10 13:24:33;;;;;;;;;;;11.50;99.90;;;;;;5093610;28;19915;-77
2022/04/10 13:26:58;;;;;;;;;;;11.50;99.90;;;;;;5093026;28;20019;-75
2022/04/10 13:29:24;;;;;;;;;;;11.50;99.90;;;;;;5092114;28;20289;-77
2022/04/10 13:31:50;;;;;;;;;;;11.60;99.90;;;;;;5092997;28;19908;-77
2022/04/10 13:34:15;;;;;;;;;;;11.60;99.90;;;;;;5092486;28;19912;-77
2022/04/10 13:36:41;;;;;;;;;;;11.60;99.90;;;;;;5093706;28;19922;-77
2022/04/10 13:39:06;;;;;;;;;;;11.70;99.90;;;;;;5099207;28;19931;-76
2022/04/10 13:41:33;;;;;;;;;;;11.70;99.90;;;;;;5092333;28;19954;-77
2022/04/10 13:44:01;;;;;;;;;;;11.60;99.90;;;;;;5092900;28;20354;-75
2022/04/10 13:46:27;;;;;;;;;;;11.70;99.90;;;;;;5092804;28;19962;-77
2022/04/10 13:48:53;;;;;;;;;;;11.70;99.90;;;;;;5091833;28;19962;-77
2022/04/10 13:51:18;;;;;;;;;;;11.70;99.90;;;;;;5092885;28;19943;-77
2022/04/10 13:53:44;;;;;;;;;;;11.60;99.90;;;;;;5093157;28;19916;-77
2022/04/10 13:56:09;;;;;;;;;;;11.70;99.90;;;;;;5092447;28;19912;-77
2022/04/10 13:58:35;;;;;;;;;;;11.80;99.90;;;;;;5093129;28;20381;-78
2022/04/10 14:01:02;;;;;;;;;;;11.80;99.90;;;;;;5092564;28;19920;-75
2022/04/10 14:03:28;;;;;;;;;;;11.70;99.90;;;;;;5092644;28;19920;-77
2022/04/10 14:05:53;;;;;;;;;;;11.70;99.90;;;;;;5091582;28;19908;-77
2022/04/10 14:08:19;;;;;;;;;;;11.70;99.90;;;;;;5092053;28;19908;-78
2022/04/10 14:10:45;;;;;;;;;;;11.60;99.90;;;;;;5092810;28;19909;-77
2022/04/10 14:13:10;;;;;;;;;;;11.60;99.90;;;;;;5092235;28;19912;-77
2022/04/10 14:15:36;;;;;;;;;;;11.50;99.90;;;;;;5092703;28;20361;-77
2022/04/10 14:18:02;;;;;;;;;;;11.60;99.90;;;;;;5092332;28;19912;-76
2022/04/10 14:20:27;;;;;;;;;;;11.60;99.90;;;;;;5092959;28;20242;-77
2022/04/10 14:22:53;;;;;;;;;;;11.60;99.90;;;;;;5092406;28;19912;-77
2022/04/10 14:25:19;;;;;;;;;;;11.60;99.90;;;;;;5090840;28;19912;-78
2022/04/10 14:27:44;;;;;;;;;;;11.50;99.90;;;;;;5092676;28;19948;-77